createdAt,value
2022-09-28T00:01:16.785Z,8.20
2022-09-28T00:03:45.448Z,8.20
2022-09-28T00:06:15.786Z,8.20
2022-09-28T00:08:43.820Z,8.20
2022-09-28T00:11:15.213Z,8.20
2022-09-28T00:13:46.135Z,8.20
2022-09-28T00:16:17.138Z,8.10
2022-09-28T00:18:45.572Z,8.10
2022-09-28T00:21:15.876Z,8.10
2022-09-28T00:23:58.700Z,8.10
2022-09-28T00:26:26.953Z,8.00
2022-09-28T00:28:57.968Z,8.10
2022-09-28T00:31:26.421Z,8.10
2022-09-28T00:33:57.313Z,8.10
2022-09-28T00:36:26.893Z,8.10
2022-09-28T00:38:55.237Z,8.10
2022-09-28T00:41:23.734Z,8.20
2022-09-28T00:43:52.041Z,8.10
2022-09-28T00:46:29.465Z,8.20
2022-09-28T00:49:00.126Z,8.20
2022-09-28T00:51:28.628Z,8.20
2022-09-28T00:53:57.855Z,8.20
2022-09-28T00:56:30.143Z,8.20
2022-09-28T00:59:01.034Z,8.20
2022-09-28T01:01:30.396Z,8.20
2022-09-28T01:03:59.664Z,8.20
2022-09-28T01:06:33.365Z,8.20
2022-09-28T01:09:07.828Z,8.20
2022-09-28T01:11:38.819Z,8.20
2022-09-28T01:14:09.189Z,8.10
2022-09-28T01:16:46.861Z,8.10
2022-09-28T01:19:36.076Z,8.10
2022-09-28T01:22:21.695Z,8.10
2022-09-28T01:24:57.145Z,8.00
2022-09-28T01:27:29.340Z,8.00
2022-09-28T01:30:05.330Z,8.00
2022-09-28T01:32:44.653Z,8.00
2022-09-28T01:35:17.022Z,8.00
2022-09-28T01:37:51.965Z,8.00
2022-09-28T01:40:22.567Z,7.90
2022-09-28T01:42:55.783Z,7.90
2022-09-28T01:45:27.585Z,7.90
2022-09-28T01:48:00.748Z,7.90
2022-09-28T01:50:31.238Z,7.90
2022-09-28T01:53:06.205Z,7.90
2022-09-28T01:55:38.299Z,7.90
2022-09-28T01:58:13.212Z,7.80
2022-09-28T02:00:45.985Z,7.90
2022-09-28T02:03:21.416Z,7.90
2022-09-28T02:05:53.975Z,7.90
2022-09-28T02:08:28.464Z,7.90
2022-09-28T02:11:06.960Z,7.90
2022-09-28T02:13:40.696Z,7.90
2022-09-28T02:16:15.097Z,7.90
2022-09-28T02:18:44.040Z,7.90
2022-09-28T02:21:16.831Z,7.90
2022-09-28T02:23:53.748Z,7.80
2022-09-28T02:26:25.817Z,7.70
2022-09-28T02:28:55.415Z,7.70
2022-09-28T02:31:23.546Z,7.70
2022-09-28T02:33:53.204Z,7.70
2022-09-28T02:36:21.329Z,7.80
2022-09-28T02:38:49.358Z,7.80
2022-09-28T02:41:32.933Z,7.80
2022-09-28T02:44:15.995Z,7.90
2022-09-28T02:46:52.685Z,7.90
2022-09-28T02:49:29.177Z,7.90
2022-09-28T02:52:21.896Z,7.90
2022-09-28T02:55:07.814Z,7.90
2022-09-28T02:57:49.364Z,7.90
2022-09-28T03:00:20.937Z,7.90
2022-09-28T03:03:01.181Z,8.00
2022-09-28T03:05:38.361Z,8.00
2022-09-28T03:08:12.305Z,8.00
2022-09-28T03:10:44.175Z,8.00
2022-09-28T03:13:13.329Z,8.10
2022-09-28T03:15:47.701Z,8.10
2022-09-28T03:18:17.383Z,8.10
2022-09-28T03:20:45.517Z,8.20
2022-09-28T03:23:24.371Z,8.10
2022-09-28T03:25:53.491Z,8.20
2022-09-28T03:28:22.664Z,8.20
2022-09-28T03:30:51.977Z,8.20
2022-09-28T03:33:20.344Z,8.20
2022-09-28T03:35:49.017Z,8.20
2022-09-28T03:38:17.066Z,8.20
2022-09-28T03:40:45.435Z,8.30
2022-09-28T03:43:13.418Z,8.30
2022-09-28T03:45:41.377Z,8.30
2022-09-28T03:48:10.763Z,8.30
2022-09-28T03:50:38.702Z,8.30
2022-09-28T03:53:06.624Z,8.30
2022-09-28T03:55:34.685Z,8.30
2022-09-28T03:58:02.621Z,8.30
2022-09-28T04:00:30.917Z,8.30
2022-09-28T04:02:59.271Z,8.30
2022-09-28T04:05:28.553Z,8.30
2022-09-28T04:07:57.748Z,8.30
2022-09-28T04:10:25.948Z,8.40
2022-09-28T04:12:55.654Z,8.40
2022-09-28T04:15:23.788Z,8.30
2022-09-28T04:17:52.221Z,8.30
2022-09-28T04:20:20.147Z,8.40
2022-09-28T04:22:49.470Z,8.40
2022-09-28T04:25:17.769Z,8.50
2022-09-28T04:28:03.422Z,8.40
2022-09-28T04:30:31.466Z,8.50
2022-09-28T04:32:59.479Z,8.50
2022-09-28T04:35:27.666Z,8.50
2022-09-28T04:37:57.239Z,8.50
2022-09-28T04:40:25.399Z,8.50
2022-09-28T04:42:56.472Z,8.60
2022-09-28T04:45:26.023Z,8.60
2022-09-28T04:47:54.556Z,8.60
2022-09-28T04:50:22.756Z,8.70
2022-09-28T04:52:50.791Z,8.70
2022-09-28T04:55:20.649Z,8.70
2022-09-28T04:57:48.968Z,8.80
2022-09-28T05:00:17.423Z,8.70
2022-09-28T05:02:45.890Z,8.80
2022-09-28T05:05:13.960Z,8.80
2022-09-28T05:07:42.908Z,8.80
2022-09-28T05:10:11.291Z,8.90
2022-09-28T05:12:52.260Z,8.90
2022-09-28T05:15:20.187Z,8.90
2022-09-28T05:17:48.101Z,8.90
2022-09-28T05:20:16.549Z,8.90
2022-09-28T05:22:44.511Z,8.90
2022-09-28T05:25:12.459Z,8.80
2022-09-28T05:27:40.511Z,8.90
2022-09-28T05:30:11.800Z,8.90
2022-09-28T05:32:41.659Z,8.90
2022-09-28T05:35:11.059Z,8.90
2022-09-28T05:37:39.289Z,8.80
2022-09-28T05:40:08.068Z,8.80
2022-09-28T05:42:35.995Z,8.80
2022-09-28T05:45:04.517Z,8.80
2022-09-28T05:47:39.312Z,8.80
2022-09-28T05:50:08.725Z,8.80
2022-09-28T05:52:36.675Z,8.80
2022-09-28T05:55:04.992Z,8.80
2022-09-28T05:57:33.014Z,8.80
2022-09-28T06:00:01.080Z,8.80
2022-09-28T06:02:29.126Z,8.80
2022-09-28T06:04:58.439Z,8.80
2022-09-28T06:07:26.353Z,8.80
2022-09-28T06:09:54.400Z,8.80
2022-09-28T06:12:22.354Z,8.70
2022-09-28T06:14:50.356Z,8.70
2022-09-28T06:17:18.521Z,8.70
2022-09-28T06:19:47.347Z,8.70
2022-09-28T06:22:16.657Z,8.70
2022-09-28T06:24:44.709Z,8.80
2022-09-28T06:27:12.621Z,8.80
2022-09-28T06:29:40.557Z,8.80
2022-09-28T06:32:08.644Z,8.90
2022-09-28T06:34:36.729Z,8.90
2022-09-28T06:37:04.642Z,8.90
2022-09-28T06:39:34.309Z,8.90
2022-09-28T06:42:03.291Z,8.90
2022-09-28T06:44:32.264Z,9.00
2022-09-28T06:47:01.673Z,9.00
2022-09-28T06:49:30.236Z,9.10
2022-09-28T06:51:58.185Z,9.10
2022-09-28T06:54:26.374Z,9.20
2022-09-28T06:56:55.654Z,9.30
2022-09-28T06:59:23.992Z,9.30
2022-09-28T07:01:52.554Z,9.30
2022-09-28T07:04:20.524Z,9.40
2022-09-28T07:06:48.899Z,9.40
2022-09-28T07:09:31.355Z,9.50
2022-09-28T07:12:03.107Z,9.50
2022-09-28T07:14:46.818Z,9.40
2022-09-28T07:17:15.725Z,9.40
2022-09-28T07:19:44.524Z,9.40
2022-09-28T07:22:18.544Z,9.40
2022-09-28T07:24:48.669Z,9.50
2022-09-28T07:27:18.303Z,9.40
2022-09-28T07:29:46.294Z,9.40
2022-09-28T07:32:14.372Z,9.30
2022-09-28T07:34:43.995Z,9.30
2022-09-28T07:37:13.349Z,9.30
2022-09-28T07:39:55.348Z,9.30
2022-09-28T07:42:25.350Z,9.40
2022-09-28T07:44:53.284Z,9.50
2022-09-28T07:47:30.871Z,9.50
2022-09-28T07:50:01.931Z,9.70
2022-09-28T07:52:30.284Z,9.80
2022-09-28T07:54:58.365Z,9.90
2022-09-28T07:57:27.715Z,10.00
2022-09-28T07:59:56.559Z,10.00
2022-09-28T08:02:24.573Z,10.00
2022-09-28T08:04:53.854Z,10.10
2022-09-28T08:07:24.254Z,10.10
2022-09-28T08:09:52.578Z,10.00
2022-09-28T08:12:21.089Z,10.00
2022-09-28T08:14:52.264Z,10.10
2022-09-28T08:17:20.257Z,10.20
2022-09-28T08:20:05.642Z,10.20
2022-09-28T08:22:34.070Z,10.20
2022-09-28T08:25:02.086Z,10.30
2022-09-28T08:27:30.158Z,10.40
2022-09-28T08:29:59.481Z,10.40
2022-09-28T08:32:28.214Z,10.40
2022-09-28T08:34:57.087Z,10.40
2022-09-28T08:37:25.054Z,10.40
2022-09-28T08:39:52.992Z,10.40
2022-09-28T08:42:33.169Z,10.40
2022-09-28T08:45:09.285Z,10.40
2022-09-28T08:48:02.892Z,10.50
2022-09-28T08:50:33.528Z,10.50
2022-09-28T08:53:20.940Z,10.60
2022-09-28T08:55:49.271Z,10.60
2022-09-28T08:58:23.313Z,10.50
2022-09-28T09:00:54.419Z,10.60
2022-09-28T09:03:26.790Z,10.70
2022-09-28T09:06:05.557Z,10.70
2022-09-28T09:08:46.251Z,10.80
2022-09-28T09:11:26.749Z,10.90
2022-09-28T09:14:15.103Z,10.90
2022-09-28T09:16:59.992Z,11.00
2022-09-28T09:19:36.574Z,11.00
2022-09-28T09:22:14.335Z,11.10
2022-09-28T09:24:52.195Z,11.20
2022-09-28T09:27:34.446Z,11.30
2022-09-28T09:30:07.328Z,11.30
2022-09-28T09:32:57.863Z,11.30
2022-09-28T09:35:48.417Z,11.30
2022-09-28T09:38:33.186Z,11.40
2022-09-28T09:41:15.489Z,11.50
2022-09-28T09:44:12.615Z,11.60
2022-09-28T09:46:45.484Z,11.70
2022-09-28T09:49:20.473Z,11.80
2022-09-28T09:51:53.877Z,11.90
2022-09-28T09:54:27.695Z,11.90
2022-09-28T09:57:01.761Z,11.90
2022-09-28T09:59:34.939Z,11.90
2022-09-28T10:02:12.038Z,11.90
2022-09-28T10:04:46.890Z,12.00
2022-09-28T10:07:25.814Z,12.10
2022-09-28T10:09:58.497Z,12.20
2022-09-28T10:12:27.177Z,12.50
2022-09-28T10:14:55.979Z,12.60
2022-09-28T10:17:27.390Z,12.70
2022-09-28T10:19:57.758Z,12.70
2022-09-28T10:22:28.747Z,12.80
2022-09-28T10:24:58.688Z,12.90
2022-09-28T10:27:30.597Z,13.00
2022-09-28T10:30:02.924Z,13.30
2022-09-28T10:32:40.233Z,13.30
2022-09-28T10:35:27.065Z,13.40
2022-09-28T10:38:00.589Z,13.50
2022-09-28T10:40:40.073Z,13.30
2022-09-28T10:43:19.803Z,13.40
2022-09-28T10:45:48.282Z,13.60
2022-09-28T10:48:21.095Z,13.50
2022-09-28T10:51:06.668Z,13.50
2022-09-28T10:53:37.078Z,13.40
2022-09-28T10:56:08.089Z,13.30
2022-09-28T10:58:40.645Z,13.20
2022-09-28T11:01:11.954Z,13.20
2022-09-28T11:03:50.606Z,13.30
2022-09-28T11:06:26.397Z,13.30
2022-09-28T11:08:57.884Z,13.20
2022-09-28T11:11:25.988Z,13.10
2022-09-28T11:13:56.801Z,13.10
2022-09-28T11:16:28.764Z,13.10
2022-09-28T11:18:57.596Z,13.20
2022-09-28T11:21:32.582Z,13.20
2022-09-28T11:24:08.404Z,13.20
2022-09-28T11:26:40.832Z,13.20
2022-09-28T11:29:21.108Z,13.20
2022-09-28T11:31:49.508Z,13.30
2022-09-28T11:34:31.501Z,13.20
2022-09-28T11:37:27.989Z,13.30
2022-09-28T11:40:04.817Z,13.30
2022-09-28T11:42:44.702Z,13.30
2022-09-28T11:45:30.268Z,13.30
2022-09-28T11:48:01.331Z,13.40
2022-09-28T11:50:36.940Z,13.10
2022-09-28T11:53:22.226Z,13.10
2022-09-28T11:55:57.237Z,13.20
2022-09-28T11:58:30.909Z,13.30
2022-09-28T12:01:04.305Z,13.30
2022-09-28T12:03:40.782Z,13.50
2022-09-28T12:06:13.941Z,13.60
2022-09-28T12:08:48.559Z,13.90
2022-09-28T12:11:21.799Z,14.10
2022-09-28T12:13:54.282Z,14.30
2022-09-28T12:16:53.565Z,14.40
2022-09-28T12:19:19.617Z,14.50
2022-09-28T12:21:52.170Z,14.60
2022-09-28T12:24:26.169Z,14.60
2022-09-28T12:26:59.185Z,14.60
2022-09-28T12:29:30.586Z,14.60
2022-09-28T12:32:08.252Z,14.50
2022-09-28T12:34:36.564Z,14.50
2022-09-28T12:37:25.243Z,14.60
2022-09-28T12:40:12.276Z,14.50
2022-09-28T12:43:01.161Z,14.70
2022-09-28T12:46:09.762Z,14.80
2022-09-28T12:49:47.282Z,14.90
2022-09-28T12:51:52.256Z,15.00
2022-09-28T12:54:40.569Z,15.10
2022-09-28T12:57:30.978Z,15.00
2022-09-28T13:00:04.344Z,15.00
2022-09-28T13:02:47.820Z,15.10
2022-09-28T13:05:37.657Z,15.20
2022-09-28T13:08:13.300Z,15.30
2022-09-28T13:10:46.579Z,15.40
2022-09-28T13:13:35.748Z,15.40
2022-09-28T13:16:12.572Z,15.20
2022-09-28T13:18:47.181Z,15.20
2022-09-28T13:21:26.232Z,15.20
2022-09-28T13:24:08.710Z,15.30
2022-09-28T13:26:47.280Z,15.40
2022-09-28T13:29:20.024Z,15.60
2022-09-28T13:31:50.625Z,15.80
2022-09-28T13:34:23.558Z,15.90
2022-09-28T13:37:21.496Z,16.00
2022-09-28T13:39:52.767Z,15.90
2022-09-28T13:42:42.217Z,15.80
2022-09-28T13:45:32.635Z,15.80
2022-09-28T13:48:14.529Z,15.80
2022-09-28T13:51:10.371Z,15.80
2022-09-28T13:53:53.497Z,15.80
2022-09-28T13:56:31.312Z,15.80
2022-09-28T13:59:05.236Z,15.70
2022-09-28T14:01:42.065Z,15.60
2022-09-28T14:04:19.036Z,15.50
2022-09-28T14:06:55.656Z,15.40
2022-09-28T14:09:45.631Z,15.20
2022-09-28T14:12:46.637Z,15.10
2022-09-28T14:15:43.920Z,15.10
2022-09-28T14:18:20.619Z,15.00
2022-09-28T14:20:59.821Z,15.10
2022-09-28T14:23:58.948Z,15.00
2022-09-28T14:27:02.838Z,15.00
2022-09-28T14:29:33.388Z,15.00
2022-09-28T14:32:06.331Z,14.90
2022-09-28T14:34:39.413Z,15.00
2022-09-28T14:37:39.145Z,15.00
2022-09-28T14:40:35.173Z,15.00
2022-09-28T14:43:24.710Z,15.00
2022-09-28T14:46:14.825Z,15.00
2022-09-28T14:48:44.865Z,15.00
2022-09-28T14:51:46.510Z,15.00
2022-09-28T14:54:20.430Z,15.00
2022-09-28T14:57:08.187Z,15.00
2022-09-28T14:59:43.397Z,14.90
2022-09-28T15:02:26.333Z,14.80
2022-09-28T15:04:59.717Z,14.80
2022-09-28T15:07:34.323Z,14.80
2022-09-28T15:10:03.254Z,14.80
2022-09-28T15:12:32.326Z,14.90
2022-09-28T15:15:02.522Z,14.90
2022-09-28T15:17:39.225Z,14.90
2022-09-28T15:20:25.203Z,14.90
2022-09-28T15:22:57.509Z,14.90
2022-09-28T15:25:28.121Z,14.70
2022-09-28T15:27:57.586Z,14.70
2022-09-28T15:30:28.950Z,14.70
2022-09-28T15:33:18.374Z,14.70
2022-09-28T15:35:50.021Z,14.60
2022-09-28T15:38:19.405Z,14.60
2022-09-28T15:40:48.378Z,14.60
2022-09-28T15:43:27.122Z,14.60
2022-09-28T15:46:02.917Z,14.60
2022-09-28T15:48:37.441Z,14.60
2022-09-28T15:51:10.754Z,14.70
2022-09-28T15:53:44.971Z,14.60
2022-09-28T15:56:13.099Z,14.70
2022-09-28T15:58:44.686Z,14.70
2022-09-28T16:01:26.986Z,14.60
2022-09-28T16:03:55.246Z,14.60
2022-09-28T16:06:23.587Z,14.60
2022-09-28T16:08:53.704Z,14.60
2022-09-28T16:11:26.325Z,14.60
2022-09-28T16:14:01.641Z,14.50
2022-09-28T16:16:31.968Z,14.50
2022-09-28T16:19:01.898Z,14.50
2022-09-28T16:21:44.216Z,14.50
2022-09-28T16:24:23.299Z,14.50
2022-09-28T16:26:58.256Z,14.40
2022-09-28T16:29:28.890Z,14.30
2022-09-28T16:31:56.973Z,14.30
2022-09-28T16:34:27.419Z,14.20
2022-09-28T16:36:55.633Z,14.10
2022-09-28T16:39:25.444Z,14.00
2022-09-28T16:41:57.247Z,13.90
2022-09-28T16:44:28.388Z,13.80
2022-09-28T16:47:00.697Z,13.80
2022-09-28T16:49:29.460Z,13.70
2022-09-28T16:51:57.406Z,13.60
2022-09-28T16:54:45.165Z,13.50
2022-09-28T16:57:15.846Z,13.40
2022-09-28T16:59:43.785Z,13.40
2022-09-28T17:02:45.175Z,13.30
2022-09-28T17:05:10.154Z,13.20
2022-09-28T17:07:38.294Z,13.10
2022-09-28T17:10:16.949Z,13.10
2022-09-28T17:12:44.892Z,13.00
2022-09-28T17:15:19.341Z,13.00
2022-09-28T17:17:47.912Z,12.90
2022-09-28T17:20:22.373Z,12.80
2022-09-28T17:22:50.483Z,12.70
2022-09-28T17:25:20.339Z,12.60
2022-09-28T17:27:49.934Z,12.50
2022-09-28T17:30:21.159Z,12.50
2022-09-28T17:37:10.964Z,12.30
2022-09-28T17:39:38.890Z,12.30
2022-09-28T17:42:08.385Z,12.20
2022-09-28T17:44:36.499Z,12.10
2022-09-28T17:47:04.596Z,12.00
2022-09-28T17:49:32.600Z,11.90
2022-09-28T17:52:01.017Z,11.80
2022-09-28T17:54:29.298Z,11.70
2022-09-28T17:56:58.155Z,11.70
2022-09-28T17:59:28.815Z,11.60
2022-09-28T18:02:00.474Z,11.50
2022-09-28T18:04:50.739Z,11.50
2022-09-28T18:07:18.319Z,11.50
2022-09-28T18:09:46.925Z,11.40
2022-09-28T18:12:15.047Z,11.40
2022-09-28T18:14:44.638Z,11.30
2022-09-28T18:17:13.196Z,11.30
2022-09-28T18:19:41.313Z,11.20
2022-09-28T18:22:10.280Z,11.10
2022-09-28T18:24:38.744Z,11.00
2022-09-28T18:27:07.924Z,11.00
2022-09-28T18:29:36.676Z,10.90
2022-09-28T18:32:06.884Z,10.90
2022-09-28T18:34:37.938Z,10.90
2022-09-28T18:37:07.048Z,10.90
2022-09-28T18:39:37.063Z,10.80
2022-09-28T18:42:05.302Z,10.80
2022-09-28T18:44:34.075Z,10.70
2022-09-28T18:47:02.850Z,10.70
2022-09-28T18:49:33.894Z,10.60
2022-09-28T18:52:02.836Z,10.50
2022-09-28T18:54:30.986Z,10.50
2022-09-28T18:57:00.368Z,10.50
2022-09-28T18:59:28.522Z,10.50
2022-09-28T19:01:56.828Z,10.40
2022-09-28T19:04:25.591Z,10.40
2022-09-28T19:06:55.329Z,10.40
2022-09-28T19:09:26.479Z,10.30
2022-09-28T19:11:54.701Z,10.30
2022-09-28T19:14:22.936Z,10.30
2022-09-28T19:16:51.377Z,10.30
2022-09-28T19:19:21.713Z,10.30
2022-09-28T19:21:50.121Z,10.20
2022-09-28T19:24:21.588Z,10.20
2022-09-28T19:26:50.841Z,10.20
2022-09-28T19:29:19.072Z,10.20
2022-09-28T19:31:47.781Z,10.20
2022-09-28T19:34:15.902Z,10.20
2022-09-28T19:36:44.356Z,10.20
2022-09-28T19:39:15.632Z,10.10
2022-09-28T19:41:49.346Z,10.10
2022-09-28T19:44:24.910Z,10.10
2022-09-28T19:46:55.257Z,10.10
2022-09-28T19:49:24.677Z,10.00
2022-09-28T19:52:14.388Z,10.00
2022-09-28T19:54:44.828Z,9.90
2022-09-28T19:57:16.091Z,9.90
2022-09-28T19:59:44.254Z,9.90
2022-09-28T20:02:13.493Z,9.90
2022-09-28T20:04:41.888Z,9.90
2022-09-28T20:07:09.845Z,9.90
2022-09-28T20:09:37.838Z,9.90
2022-09-28T20:12:06.101Z,9.80
2022-09-28T20:14:38.287Z,9.80
2022-09-28T20:17:08.662Z,9.80
2022-09-28T20:19:36.662Z,9.80
2022-09-28T20:22:04.905Z,9.70
2022-09-28T20:24:33.085Z,9.70
2022-09-28T20:27:01.837Z,9.70
2022-09-28T20:29:31.501Z,9.70
2022-09-28T20:32:01.262Z,9.70
2022-09-28T20:34:29.251Z,9.70
2022-09-28T20:36:57.208Z,9.70
2022-09-28T20:39:25.272Z,9.60
2022-09-28T20:41:53.522Z,9.60
2022-09-28T20:44:21.615Z,9.50
2022-09-28T20:46:52.107Z,9.50
2022-09-28T20:49:21.620Z,9.40
2022-09-28T20:51:49.569Z,9.50
2022-09-28T20:54:17.724Z,9.40
2022-09-28T20:56:48.014Z,9.40
2022-09-28T20:59:16.212Z,9.40
2022-09-28T21:01:44.689Z,9.40
2022-09-28T21:04:12.992Z,9.30
2022-09-28T21:06:43.438Z,9.30
2022-09-28T21:09:13.059Z,9.30
2022-09-28T21:11:41.660Z,9.20
2022-09-28T21:14:10.673Z,9.20
2022-09-28T21:16:39.916Z,9.10
2022-09-28T21:19:08.044Z,9.10
2022-09-28T21:21:36.082Z,9.00
2022-09-28T21:24:05.723Z,9.00
2022-09-28T21:26:35.034Z,9.00
2022-09-28T21:29:04.757Z,9.00
2022-09-28T21:31:38.064Z,8.90
2022-09-28T21:34:06.245Z,8.90
2022-09-28T21:36:34.696Z,8.90
2022-09-28T21:39:05.022Z,8.90
2022-09-28T21:41:37.623Z,8.90
2022-09-28T21:44:05.679Z,8.90
2022-09-28T21:46:34.690Z,8.90
2022-09-28T21:49:03.376Z,8.80
2022-09-28T21:51:31.672Z,8.80
2022-09-28T21:53:59.649Z,8.80
2022-09-28T21:56:28.068Z,8.80
2022-09-28T21:58:57.890Z,8.80
2022-09-28T22:01:26.605Z,8.80
2022-09-28T22:03:56.319Z,8.80
2022-09-28T22:06:27.910Z,8.80
2022-09-28T22:08:56.232Z,8.80
2022-09-28T22:11:25.948Z,8.80
2022-09-28T22:13:56.222Z,8.70
2022-09-28T22:16:27.704Z,8.70
2022-09-28T22:18:55.864Z,8.70
2022-09-28T22:21:25.637Z,8.70
2022-09-28T22:23:53.843Z,8.70
2022-09-28T22:26:23.776Z,8.70
2022-09-28T22:28:54.240Z,8.70
2022-09-28T22:31:24.410Z,8.70
2022-09-28T22:33:54.040Z,8.70
2022-09-28T22:36:22.378Z,8.70
2022-09-28T22:38:50.657Z,8.70
2022-09-28T22:41:21.013Z,8.70
2022-09-28T22:43:49.742Z,8.70
2022-09-28T22:46:19.801Z,8.60
2022-09-28T22:48:48.331Z,8.60
2022-09-28T22:51:18.284Z,8.60
2022-09-28T22:53:46.734Z,8.60
2022-09-28T22:56:18.768Z,8.60
2022-09-28T22:58:47.610Z,8.60
2022-09-28T23:01:17.748Z,8.60
2022-09-28T23:03:46.427Z,8.60
2022-09-28T23:06:16.629Z,8.50
2022-09-28T23:08:47.300Z,8.50
2022-09-28T23:11:15.924Z,8.50
2022-09-28T23:13:44.609Z,8.50
2022-09-28T23:16:14.714Z,8.40
2022-09-28T23:18:43.613Z,8.40
2022-09-28T23:21:16.151Z,8.40
2022-09-28T23:23:46.370Z,8.40
2022-09-28T23:26:15.518Z,8.40
2022-09-28T23:28:43.601Z,8.40
2022-09-28T23:31:13.668Z,8.40
2022-09-28T23:33:41.716Z,8.40
2022-09-28T23:36:10.777Z,8.30
2022-09-28T23:38:38.825Z,8.30
2022-09-28T23:41:08.715Z,8.30
2022-09-28T23:43:37.240Z,8.30
2022-09-28T23:46:06.167Z,8.30
2022-09-28T23:48:34.824Z,8.30
2022-09-28T23:51:03.307Z,8.30
2022-09-28T23:53:33.163Z,8.30
2022-09-28T23:56:01.468Z,8.30
2022-09-28T23:58:30.911Z,8.30
